createdAt,value
2023-05-03T00:04:00.506Z,5.30
2023-05-03T00:09:04.904Z,5.30
2023-05-03T00:14:09.121Z,5.47
2023-05-03T00:19:20.915Z,4.57
2023-05-03T00:24:32.555Z,4.97
2023-05-03T00:29:36.599Z,4.25
2023-05-03T00:34:40.554Z,4.65
2023-05-03T00:39:44.494Z,4.15
2023-05-03T00:44:53.316Z,4.43
2023-05-03T00:49:58.164Z,4.22
2023-05-03T00:55:02.679Z,4.03
2023-05-03T01:00:09.676Z,3.30
2023-05-03T01:05:13.933Z,3.42
2023-05-03T01:10:43.300Z,3.90
2023-05-03T01:15:59.283Z,3.38
2023-05-03T01:21:05.676Z,3.38
2023-05-03T01:26:19.154Z,3.33
2023-05-03T01:31:30.747Z,3.00
2023-05-03T01:36:36.499Z,2.95
2023-05-03T01:41:42.581Z,2.88
2023-05-03T01:46:47.302Z,2.50
2023-05-03T01:51:50.917Z,2.20
2023-05-03T01:56:54.925Z,2.17
2023-05-03T02:01:58.872Z,2.17
2023-05-03T02:07:02.969Z,1.73
2023-05-03T02:12:07.276Z,1.83
2023-05-03T02:17:11.895Z,1.75
2023-05-03T02:22:15.420Z,2.38
2023-05-03T02:27:19.402Z,2.22
2023-05-03T02:32:24.228Z,2.05
2023-05-03T02:37:28.448Z,2.53
2023-05-03T02:42:33.835Z,2.00
2023-05-03T02:47:38.497Z,2.17
2023-05-03T02:52:43.248Z,2.10
2023-05-03T02:57:46.732Z,1.60
2023-05-03T03:02:55.411Z,1.60
2023-05-03T03:07:59.764Z,1.90
2023-05-03T03:13:04.113Z,1.90
2023-05-03T03:18:13.978Z,1.95
2023-05-03T03:23:17.643Z,1.42
2023-05-03T03:28:22.133Z,1.60
2023-05-03T03:33:26.529Z,1.40
2023-05-03T03:38:36.178Z,1.25
2023-05-03T03:43:43.867Z,1.50
2023-05-03T03:48:52.348Z,1.48
2023-05-03T03:53:57.880Z,1.45
2023-05-03T03:59:05.735Z,1.73
2023-05-03T04:04:10.160Z,1.60
2023-05-03T04:09:14.866Z,1.30
2023-05-03T04:14:18.791Z,1.38
2023-05-03T04:19:26.299Z,1.40
2023-05-03T04:24:31.142Z,1.20
2023-05-03T04:29:35.263Z,1.00
2023-05-03T04:34:39.456Z,1.20
2023-05-03T04:39:43.045Z,1.25
2023-05-03T04:44:46.587Z,1.00
2023-05-03T04:49:51.040Z,0.70
2023-05-03T04:54:54.921Z,1.10
2023-05-03T05:00:09.101Z,0.90
2023-05-03T05:05:20.547Z,1.00
2023-05-03T05:10:25.266Z,0.82
2023-05-03T05:15:30.706Z,1.20
2023-05-03T05:20:35.548Z,0.90
2023-05-03T05:25:40.634Z,0.85
2023-05-03T05:30:44.349Z,1.00
2023-05-03T05:35:49.576Z,0.77
2023-05-03T05:40:57.628Z,0.70
2023-05-03T05:46:02.006Z,0.93
2023-05-03T05:51:06.444Z,0.73
2023-05-03T05:56:11.601Z,0.75
2023-05-03T06:01:15.811Z,0.50
2023-05-03T06:06:19.325Z,0.30
2023-05-03T06:11:22.561Z,0.70
2023-05-03T06:16:26.546Z,0.45
2023-05-03T06:21:30.515Z,0.60
2023-05-03T06:26:33.730Z,0.68
2023-05-03T06:31:38.565Z,0.40
2023-05-03T06:36:42.072Z,0.30
2023-05-03T06:41:45.387Z,0.30
2023-05-03T06:46:49.662Z,0.32
2023-05-03T06:51:53.104Z,0.20
2023-05-03T06:56:56.821Z,0.25
2023-05-03T07:02:00.146Z,0.30
2023-05-03T07:07:03.393Z,0.30
2023-05-03T07:12:07.874Z,0.30
2023-05-03T07:17:11.411Z,0.20
2023-05-03T07:22:14.963Z,0.50
2023-05-03T07:27:18.620Z,0.40
2023-05-03T07:32:22.780Z,0.20
2023-05-03T07:37:28.210Z,0.30
2023-05-03T07:42:31.675Z,0.50
2023-05-03T07:47:38.321Z,0.50
2023-05-03T07:52:43.728Z,0.70
2023-05-03T07:57:47.392Z,0.60
2023-05-03T08:02:50.695Z,0.50
2023-05-03T08:07:53.947Z,0.50
2023-05-03T08:12:58.033Z,1.23
2023-05-03T08:18:01.763Z,0.85
2023-05-03T08:23:05.754Z,0.80
2023-05-03T08:28:09.309Z,0.65
2023-05-03T08:33:13.457Z,0.60
2023-05-03T08:38:17.576Z,1.25
2023-05-03T08:43:22.892Z,1.20
2023-05-03T08:48:27.720Z,0.73
2023-05-03T08:53:33.457Z,0.75
2023-05-03T08:58:39.036Z,1.05
2023-05-03T09:03:54.045Z,1.10
2023-05-03T09:08:58.701Z,0.80
2023-05-03T09:14:13.180Z,1.48
2023-05-03T09:19:17.416Z,1.00
2023-05-03T09:24:22.584Z,0.90
2023-05-03T09:29:31.744Z,0.90
2023-05-03T09:34:37.491Z,1.95
2023-05-03T09:39:46.030Z,0.80
2023-05-03T09:44:54.301Z,0.50
2023-05-03T09:49:57.872Z,0.82
2023-05-03T09:55:01.397Z,1.00
2023-05-03T10:00:05.519Z,1.10
2023-05-03T10:05:16.757Z,1.20
2023-05-03T10:10:21.714Z,1.05
2023-05-03T10:15:27.748Z,0.90
2023-05-03T10:20:55.084Z,1.02
2023-05-03T10:26:10.007Z,0.80
2023-05-03T10:31:49.018Z,1.25
2023-05-03T10:36:54.519Z,1.80
2023-05-03T10:42:08.644Z,2.28
2023-05-03T10:47:19.752Z,2.63
2023-05-03T10:52:41.401Z,2.38
2023-05-03T10:57:48.628Z,3.30
2023-05-03T11:03:13.831Z,2.63
2023-05-03T11:08:22.268Z,3.10
2023-05-03T11:13:25.590Z,2.97
2023-05-03T11:18:29.084Z,3.28
2023-05-03T11:23:33.088Z,2.40
2023-05-03T11:28:55.834Z,2.88
2023-05-03T11:33:59.932Z,2.70
2023-05-03T11:39:06.067Z,2.28
2023-05-03T11:44:16.891Z,1.38
2023-05-03T11:49:20.909Z,1.80
2023-05-03T11:54:27.330Z,1.80
2023-05-03T11:59:41.485Z,1.73
2023-05-03T12:04:46.260Z,1.20
2023-05-03T12:10:00.919Z,1.33
2023-05-03T12:15:16.225Z,1.42
2023-05-03T12:25:34.897Z,1.73
2023-05-03T12:30:40.590Z,1.30
2023-05-03T12:35:47.709Z,1.30
2023-05-03T12:40:51.884Z,0.85
2023-05-03T12:46:20.173Z,1.58
2023-05-03T12:51:22.843Z,1.00
2023-05-03T12:56:32.735Z,1.40
2023-05-03T13:02:38.761Z,1.30
2023-05-03T13:07:01.803Z,1.40
2023-05-03T13:12:05.497Z,1.17
2023-05-03T13:17:08.755Z,1.25
2023-05-03T13:22:13.282Z,0.60
2023-05-03T13:27:18.475Z,0.50
2023-05-03T13:32:21.965Z,0.50
2023-05-03T13:37:25.721Z,0.47
2023-05-03T13:42:30.186Z,1.10
2023-05-03T13:47:53.006Z,1.17
2023-05-03T13:52:57.269Z,1.30
2023-05-03T13:58:01.407Z,1.50
2023-05-03T14:03:05.046Z,1.00
2023-05-03T14:08:09.018Z,1.10
2023-05-03T14:13:13.792Z,1.15
2023-05-03T14:18:17.877Z,0.98
2023-05-03T14:23:21.357Z,1.27
2023-05-03T14:28:24.556Z,1.10
2023-05-03T14:33:28.431Z,1.00
2023-05-03T14:38:32.343Z,1.23
2023-05-03T14:43:35.565Z,1.17
2023-05-03T14:48:39.572Z,1.10
2023-05-03T14:53:43.201Z,1.23
2023-05-03T14:58:46.497Z,1.08
2023-05-03T15:03:50.339Z,1.00
2023-05-03T15:08:54.847Z,1.73
2023-05-03T15:13:59.197Z,1.05
2023-05-03T15:19:03.056Z,1.15
2023-05-03T15:24:07.350Z,1.98
2023-05-03T15:29:11.376Z,1.23
2023-05-03T15:34:15.608Z,1.70
2023-05-03T15:39:18.840Z,1.58
2023-05-03T15:44:22.652Z,1.50
2023-05-03T15:49:27.754Z,1.05
2023-05-03T15:54:31.973Z,1.20
2023-05-03T15:59:36.367Z,1.40
2023-05-03T16:04:40.514Z,1.00
2023-05-03T16:09:44.233Z,1.25
2023-05-03T16:14:48.439Z,1.20
2023-05-03T16:19:52.368Z,1.20
2023-05-03T16:24:55.980Z,1.00
2023-05-03T16:30:00.273Z,1.00
2023-05-03T16:35:04.662Z,1.08
2023-05-03T16:40:11.949Z,1.30
2023-05-03T16:45:17.123Z,1.23
2023-05-03T16:50:21.414Z,1.17
